Time;durP1;ratioP1;P1;durP2;ratioP2;P2;SDS_P1;SDS_P2;PMS_P1;PMS_P2;Temp;Humidity;BMP_temperature;BMP_pressure;BME280_temperature;BME280_humidity;BME280_pressure;Samples;Min_cycle;Max_cycle;Signal;HPM_P1;HPM_P2
2023/06/04 00:00:16;;;;;;;3.73;2.20;;;23.60;48.10;;;;;;5055354;28;20458;-75
2023/06/04 00:02:42;;;;;;;1.80;1.67;;;23.50;48.20;;;;;;5022454;28;20438;-75
2023/06/04 00:05:08;;;;;;;2.37;1.90;;;23.50;48.30;;;;;;5038962;28;20434;-75
2023/06/04 00:07:34;;;;;;;2.20;1.93;;;23.50;48.30;;;;;;5038636;28;20434;-75
2023/06/04 00:10:04;;;;;;;2.50;2.30;;;23.50;48.40;;;;;;5022679;28;20464;-76
2023/06/04 00:12:30;;;;;;;2.33;2.10;;;23.50;48.30;;;;;;5038891;28;20809;-75
2023/06/04 00:14:56;;;;;;;2.20;1.87;;;23.40;48.40;;;;;;5055240;28;20430;-75
2023/06/04 00:17:25;;;;;;;2.27;2.07;;;23.40;48.50;;;;;;5056391;28;20904;-75
2023/06/04 00:19:51;;;;;;;2.93;1.93;;;23.40;48.50;;;;;;5038659;28;20445;-75
2023/06/04 00:22:23;;;;;;;2.53;1.77;;;23.40;48.60;;;;;;5055496;28;20398;-75
2023/06/04 00:24:49;;;;;;;3.70;1.60;;;23.40;48.50;;;;;;5056248;28;20434;-75
2023/06/04 00:27:15;;;;;;;6.87;2.07;;;23.30;48.50;;;;;;5022011;28;20432;-75
2023/06/04 00:29:41;;;;;;;3.70;2.13;;;23.30;48.70;;;;;;5054460;28;20169;-75
2023/06/04 00:32:10;;;;;;;2.50;1.90;;;23.30;48.70;;;;;;5038561;28;20790;-75
2023/06/04 00:34:36;;;;;;;2.03;1.57;;;23.30;48.60;;;;;;5038445;28;20195;-75
2023/06/04 00:37:02;;;;;;;2.10;1.90;;;23.30;48.70;;;;;;5038451;28;20422;-75
2023/06/04 00:39:29;;;;;;;3.40;2.20;;;23.20;48.90;;;;;;5055730;28;20530;-75
2023/06/04 00:41:55;;;;;;;2.10;1.57;;;23.20;48.70;;;;;;5038231;28;20973;-75
2023/06/04 00:44:25;;;;;;;2.50;1.60;;;23.20;48.70;;;;;;5021270;28;20441;-75
2023/06/04 00:46:54;;;;;;;4.27;2.00;;;23.20;48.70;;;;;;5031302;28;20950;-75
2023/06/04 00:49:20;;;;;;;3.07;1.97;;;23.20;48.70;;;;;;5038346;28;20417;-75
2023/06/04 00:51:52;;;;;;;2.43;1.80;;;23.10;48.70;;;;;;5038283;28;20825;-75
2023/06/04 00:54:20;;;;;;;2.63;2.10;;;23.10;48.80;;;;;;5037346;28;20492;-75
2023/06/04 00:56:48;;;;;;;2.57;2.10;;;23.10;48.80;;;;;;5055704;28;20399;-75
2023/06/04 00:59:16;;;;;;;3.10;1.80;;;23.10;48.90;;;;;;5037951;28;20446;-75
2023/06/04 01:01:57;;;;;;;2.00;1.80;;;23.10;48.80;;;;;;5021661;28;20430;-75
2023/06/04 01:04:54;;;;;;;3.63;2.37;;;23.00;48.80;;;;;;5037877;28;20466;-75
2023/06/04 01:07:24;;;;;;;2.30;2.10;;;23.00;48.80;;;;;;5021359;28;20442;-75
2023/06/04 01:09:53;;;;;;;1.90;1.70;;;23.00;48.80;;;;;;5021975;28;20773;-75
2023/06/04 01:12:22;;;;;;;4.77;2.20;;;23.00;48.90;;;;;;5055492;28;20391;-75
2023/06/04 01:14:48;;;;;;;2.60;2.00;;;23.00;48.90;;;;;;5021589;28;21074;-75
2023/06/04 01:17:28;;;;;;;2.10;1.90;;;22.90;48.70;;;;;;5021096;28;20423;-75
2023/06/04 01:20:11;;;;;;;3.10;1.87;;;22.90;48.70;;;;;;5020987;28;20506;-75
2023/06/04 01:23:02;;;;;;;2.40;2.17;;;22.90;48.80;;;;;;5037639;28;20418;-75
2023/06/04 01:25:45;;;;;;;2.80;2.13;;;22.80;48.70;;;;;;5055146;28;20959;-75
2023/06/04 01:28:15;;;;;;;2.30;2.10;;;22.80;48.80;;;;;;5037496;28;20460;-75
2023/06/04 01:30:45;;;;;;;2.37;2.10;;;22.80;48.80;;;;;;5037789;28;20414;-75
2023/06/04 01:33:14;;;;;;;2.60;2.33;;;22.80;48.80;;;;;;5037617;28;20402;-75
2023/06/04 01:35:40;;;;;;;2.30;2.10;;;22.80;48.80;;;;;;5053790;28;20473;-75
2023/06/04 01:38:06;;;;;;;2.00;1.80;;;22.80;48.70;;;;;;5037186;28;20858;-75
2023/06/04 01:40:35;;;;;;;1.90;1.80;;;22.70;48.70;;;;;;5053534;28;20975;-75
2023/06/04 01:43:05;;;;;;;2.30;2.10;;;22.70;48.70;;;;;;5020997;28;20435;-75
2023/06/04 01:45:34;;;;;;;2.27;1.77;;;22.70;48.70;;;;;;5037168;28;20422;-75
2023/06/04 01:48:05;;;;;;;2.50;2.00;;;22.70;48.80;;;;;;5020861;28;20841;-75
2023/06/04 01:50:31;;;;;;;3.83;2.07;;;22.60;48.70;;;;;;5004456;28;20922;-75
2023/06/04 01:52:58;;;;;;;6.83;1.97;;;22.60;48.70;;;;;;5054765;28;20828;-75
2023/06/04 01:55:28;;;;;;;2.60;2.20;;;22.60;48.70;;;;;;5020446;28;20533;-75
2023/06/04 01:57:59;;;;;;;2.33;1.93;;;22.60;48.70;;;;;;5004730;28;20426;-75
2023/06/04 02:00:29;;;;;;;2.33;2.10;;;22.60;48.80;;;;;;5036705;28;20458;-75
2023/06/04 02:02:56;;;;;;;2.10;1.90;;;22.60;48.80;;;;;;5036843;28;20438;-75
2023/06/04 02:05:22;;;;;;;2.90;1.90;;;22.50;48.70;;;;;;5003014;28;20442;-75
2023/06/04 02:07:48;;;;;;;3.63;1.80;;;22.50;48.80;;;;;;5053248;28;20423;-75
2023/06/04 02:10:19;;;;;;;2.67;2.07;;;22.50;48.80;;;;;;5020443;28;20808;-75
2023/06/04 02:12:57;;;;;;;2.40;2.20;;;22.50;48.90;;;;;;5020922;28;20406;-75
2023/06/04 02:15:27;;;;;;;3.13;2.00;;;22.50;49.00;;;;;;5019893;28;20457;-75
2023/06/04 02:18:16;;;;;;;2.80;2.20;;;22.40;49.00;;;;;;5021644;28;20532;-75
2023/06/04 02:20:44;;;;;;;2.47;1.63;;;22.40;49.00;;;;;;5056372;28;20482;-75
2023/06/04 02:23:11;;;;;;;2.23;1.93;;;22.40;49.10;;;;;;5039903;28;20409;-75
2023/06/04 02:25:40;;;;;;;3.10;1.97;;;22.40;49.20;;;;;;5072777;28;20444;-75
2023/06/04 02:28:09;;;;;;;2.90;2.60;;;22.40;49.20;;;;;;5056118;28;20792;-75
2023/06/04 02:30:35;;;;;;;2.87;1.90;;;22.30;49.20;;;;;;5056509;28;20497;-75
2023/06/04 02:33:03;;;;;;;2.60;2.07;;;22.30;49.30;;;;;;5072619;28;20410;-75
2023/06/04 02:35:30;;;;;;;3.00;1.77;;;22.30;49.30;;;;;;5056150;28;20435;-75
2023/06/04 02:38:00;;;;;;;2.33;1.90;;;22.30;49.40;;;;;;5072593;28;20410;-75
2023/06/04 02:40:29;;;;;;;2.20;1.63;;;22.30;49.40;;;;;;5055798;28;20505;-75
2023/06/04 02:42:56;;;;;;;2.63;1.60;;;22.30;49.50;;;;;;5072461;28;20910;-75
2023/06/04 02:45:23;;;;;;;2.00;1.70;;;22.20;49.40;;;;;;5073936;28;20426;-75
2023/06/04 02:47:56;;;;;;;2.43;1.80;;;22.20;49.60;;;;;;5054133;28;20410;-75
2023/06/04 02:50:22;;;;;;;2.20;1.80;;;22.20;49.60;;;;;;5052913;28;20427;-75
2023/06/04 02:52:51;;;;;;;2.07;1.80;;;22.20;49.60;;;;;;5035818;28;20410;-75
2023/06/04 02:55:17;;;;;;;1.63;1.50;;;22.20;49.70;;;;;;5053477;28;20434;-75
2023/06/04 02:57:46;;;;;;;2.57;2.03;;;22.10;49.70;;;;;;5053594;28;20963;-75
2023/06/04 03:00:14;;;;;;;1.83;1.60;;;22.10;49.70;;;;;;5035686;28;20435;-75
2023/06/04 03:02:45;;;;;;;2.10;1.60;;;22.10;49.80;;;;;;5052368;28;20441;-75
2023/06/04 03:05:14;;;;;;;5.60;2.10;;;22.10;49.90;;;;;;5035443;28;20797;-75
2023/06/04 03:07:44;;;;;;;2.27;1.97;;;22.10;49.90;;;;;;5052020;28;20521;-75
2023/06/04 03:10:12;;;;;;;3.40;2.43;;;22.10;49.90;;;;;;5052267;28;20922;-75
2023/06/04 03:12:43;;;;;;;2.70;2.00;;;22.00;49.90;;;;;;5019328;28;20513;-75
2023/06/04 03:15:09;;;;;;;3.17;1.80;;;22.00;50.00;;;;;;5035455;28;20446;-75
2023/06/04 03:17:35;;;;;;;4.60;1.70;;;22.00;50.00;;;;;;5035321;28;20425;-75
2023/06/04 03:20:04;;;;;;;3.07;2.30;;;22.00;50.10;;;;;;5035245;28;20458;-75
2023/06/04 03:22:30;;;;;;;2.07;1.80;;;22.00;50.10;;;;;;5035406;28;20421;-75
2023/06/04 03:24:58;;;;;;;3.00;1.70;;;21.90;50.10;;;;;;5035524;28;20438;-75
2023/06/04 03:27:24;;;;;;;1.87;1.70;;;22.00;50.20;;;;;;5035560;28;20409;-75
2023/06/04 03:29:50;;;;;;;2.23;2.00;;;21.90;50.20;;;;;;5052091;28;20407;-75
2023/06/04 03:32:20;;;;;;;1.83;1.70;;;21.90;50.20;;;;;;5051737;28;20417;-75
2023/06/04 03:34:51;;;;;;;2.13;1.90;;;21.90;50.20;;;;;;5003042;28;20831;-75
2023/06/04 03:37:17;;;;;;;3.20;1.67;;;21.90;50.30;;;;;;5035450;28;20985;-75
2023/06/04 03:39:46;;;;;;;3.07;1.90;;;21.90;50.30;;;;;;5035315;28;20469;-75
2023/06/04 03:42:20;;;;;;;2.33;1.83;;;21.90;50.40;;;;;;5035401;28;20415;-75
2023/06/04 03:44:46;;;;;;;2.77;1.97;;;21.80;50.40;;;;;;5018593;28;20453;-75
2023/06/04 03:47:15;;;;;;;1.90;1.70;;;21.80;50.50;;;;;;5035036;28;20772;-75
2023/06/04 03:49:46;;;;;;;2.53;1.60;;;21.80;50.50;;;;;;5035281;28;20434;-75
2023/06/04 03:52:13;;;;;;;1.80;1.50;;;21.80;50.50;;;;;;5035275;28;20912;-75
2023/06/04 03:54:41;;;;;;;2.20;2.00;;;21.80;51.10;;;;;;5035077;28;20442;-75
2023/06/04 03:57:07;;;;;;;2.90;1.77;;;21.70;50.50;;;;;;5035427;28;20489;-75
2023/06/04 03:59:33;;;;;;;3.33;2.37;;;21.70;50.60;;;;;;5051580;28;20894;-75
2023/06/04 04:01:59;;;;;;;2.30;2.03;;;21.70;50.70;;;;;;5035201;28;20425;-75
2023/06/04 04:04:28;;;;;;;4.43;2.33;;;21.70;50.70;;;;;;5002685;28;20443;-75
2023/06/04 04:06:56;;;;;;;2.97;1.70;;;21.70;50.70;;;;;;5018157;28;20429;-75
2023/06/04 04:09:24;;;;;;;2.40;2.00;;;21.70;50.80;;;;;;5034966;28;20411;-75
2023/06/04 04:11:50;;;;;;;2.30;1.87;;;21.60;50.70;;;;;;5034942;28;20410;-75
2023/06/04 04:14:20;;;;;;;2.00;1.80;;;21.60;50.80;;;;;;5018900;28;20481;-75
2023/06/04 04:16:46;;;;;;;2.97;1.80;;;21.60;50.90;;;;;;5034832;28;20457;-75
2023/06/04 04:19:13;;;;;;;2.10;1.50;;;21.60;50.90;;;;;;5018719;28;20549;-75
2023/06/04 04:21:48;;;;;;;1.97;1.53;;;21.60;51.00;;;;;;5035043;28;20771;-75
2023/06/04 04:24:24;;;;;;;2.43;1.90;;;21.50;51.00;;;;;;5051227;28;20934;-75
2023/06/04 04:26:55;;;;;;;2.37;1.87;;;21.50;51.00;;;;;;5018535;28;20421;-75
2023/06/04 04:29:27;;;;;;;3.70;2.03;;;21.50;51.00;;;;;;5036294;28;20802;-75
2023/06/04 04:32:32;;;;;;;3.20;1.80;;;21.50;51.10;;;;;;5056509;28;20430;-75
2023/06/04 04:34:54;;;;;;;2.33;1.90;;;21.50;51.20;;;;;;5037348;28;20517;-75
2023/06/04 04:37:24;;;;;;;2.90;1.80;;;21.40;51.10;;;;;;5021861;28;20436;-75
2023/06/04 04:39:55;;;;;;;2.90;1.80;;;21.40;51.20;;;;;;5021722;28;20485;-75
2023/06/04 04:42:26;;;;;;;3.20;1.90;;;21.40;51.20;;;;;;5038248;28;20398;-75
2023/06/04 04:44:52;;;;;;;3.80;1.70;;;21.40;51.30;;;;;;5038240;28;20434;-75
2023/06/04 04:47:23;;;;;;;2.20;1.80;;;21.40;51.30;;;;;;5005995;28;20407;-75
2023/06/04 04:49:49;;;;;;;3.17;2.10;;;21.40;51.40;;;;;;5037911;28;20438;-75
2023/06/04 04:52:18;;;;;;;2.13;1.80;;;21.30;51.40;;;;;;5038516;28;20406;-75
2023/06/04 04:54:47;;;;;;;2.47;1.77;;;21.30;51.40;;;;;;5038149;28;20445;-75
2023/06/04 04:57:15;;;;;;;2.27;1.83;;;21.30;51.40;;;;;;5037950;28;20525;-75
2023/06/04 04:59:48;;;;;;;4.60;1.90;;;21.30;51.50;;;;;;5038313;28;20508;-75
2023/06/04 05:02:14;;;;;;;2.70;1.80;;;21.30;51.50;;;;;;5005489;28;20502;-75
2023/06/04 05:04:41;;;;;;;2.90;1.90;;;21.30;51.60;;;;;;5037486;28;20452;-75
2023/06/04 05:07:07;;;;;;;1.90;1.70;;;21.20;51.50;;;;;;5053987;28;20498;-75
2023/06/04 05:09:33;;;;;;;3.80;1.90;;;21.20;51.60;;;;;;5037616;28;20497;-75
2023/06/04 05:11:59;;;;;;;2.47;2.03;;;21.20;51.60;;;;;;5004743;28;20172;-75
2023/06/04 05:14:31;;;;;;;2.70;1.97;;;21.20;51.60;;;;;;5037682;28;20458;-75
2023/06/04 05:16:59;;;;;;;2.17;1.60;;;21.20;51.70;;;;;;5000908;28;20434;-75
2023/06/04 05:19:28;;;;;;;2.60;1.80;;;21.20;51.70;;;;;;5017026;28;20469;-75
2023/06/04 05:21:54;;;;;;;2.70;1.83;;;21.10;51.70;;;;;;5017274;28;20844;-75
2023/06/04 05:24:22;;;;;;;1.80;1.70;;;21.10;51.70;;;;;;5034815;28;20434;-75
2023/06/04 05:26:48;;;;;;;2.03;1.80;;;21.10;51.70;;;;;;5017488;28;20915;-76
2023/06/04 05:29:19;;;;;;;2.63;1.90;;;21.20;51.80;;;;;;5033815;28;20468;-75
2023/06/04 05:31:46;;;;;;;2.07;1.60;;;21.10;51.80;;;;;;5033264;28;20455;-75
2023/06/04 05:34:16;;;;;;;1.90;1.70;;;21.10;51.80;;;;;;5017386;28;21077;-75
2023/06/04 05:36:43;;;;;;;2.90;2.20;;;21.10;51.90;;;;;;5017206;28;20438;-75
2023/06/04 05:39:10;;;;;;;2.37;1.90;;;21.10;51.90;;;;;;5017076;28;20801;-75
2023/06/04 05:41:45;;;;;;;1.80;1.47;;;21.10;52.00;;;;;;5033428;28;20791;-74
2023/06/04 05:44:12;;;;;;;3.30;2.03;;;21.10;51.90;;;;;;5016884;28;20443;-75
2023/06/04 05:46:38;;;;;;;2.27;2.07;;;21.00;51.90;;;;;;5009588;28;20795;-75
2023/06/04 05:49:04;;;;;;;2.33;2.00;;;21.00;51.90;;;;;;5015957;28;20445;-75
2023/06/04 05:51:33;;;;;;;1.93;1.70;;;21.00;51.90;;;;;;5016764;28;20911;-75
2023/06/04 05:54:04;;;;;;;2.67;1.73;;;21.00;51.90;;;;;;5016598;28;20452;-75
2023/06/04 05:56:34;;;;;;;2.67;1.80;;;21.00;51.90;;;;;;5016710;28;20426;-75
2023/06/04 05:59:03;;;;;;;1.83;1.57;;;21.00;51.90;;;;;;4984330;28;20472;-75
2023/06/04 06:01:31;;;;;;;2.37;2.17;;;21.00;52.00;;;;;;5033158;28;20789;-75
2023/06/04 06:03:57;;;;;;;2.17;1.97;;;21.00;52.00;;;;;;5036125;28;20442;-75
2023/06/04 06:06:26;;;;;;;2.63;2.00;;;21.00;52.00;;;;;;5036410;28;20398;-75
2023/06/04 06:08:52;;;;;;;2.77;1.80;;;20.90;51.90;;;;;;5036571;28;20434;-80
2023/06/04 06:11:23;;;;;;;2.83;2.00;;;21.00;52.00;;;;;;5040929;28;20907;-80
2023/06/04 06:13:49;;;;;;;2.27;1.70;;;20.90;51.90;;;;;;5058241;28;20438;-80
2023/06/04 06:16:18;;;;;;;1.70;1.50;;;20.90;51.90;;;;;;5067769;28;20479;-79
2023/06/04 06:18:47;;;;;;;3.90;1.70;;;20.90;51.90;;;;;;5060470;28;20497;-77
2023/06/04 06:21:13;;;;;;;2.07;1.70;;;20.90;51.90;;;;;;5057972;28;20823;-77
2023/06/04 06:23:40;;;;;;;2.27;1.83;;;20.90;51.90;;;;;;5044792;28;20537;-77
2023/06/04 06:26:08;;;;;;;2.63;2.20;;;20.90;51.90;;;;;;5035645;28;20918;-77
2023/06/04 06:28:38;;;;;;;2.40;1.97;;;20.90;52.00;;;;;;5019238;28;20449;-77
2023/06/04 06:31:05;;;;;;;5.23;1.80;;;20.90;52.00;;;;;;5051749;28;20405;-77
2023/06/04 06:33:31;;;;;;;2.37;1.80;;;20.90;52.10;;;;;;5034985;28;20433;-77
2023/06/04 06:36:00;;;;;;;1.87;1.77;;;20.90;52.10;;;;;;5050778;28;21093;-78
2023/06/04 06:38:27;;;;;;;2.10;1.60;;;20.90;52.10;;;;;;5018237;28;20426;-77
2023/06/04 06:40:55;;;;;;;2.87;2.13;;;20.90;52.10;;;;;;5034929;28;21032;-77
2023/06/04 06:43:21;;;;;;;2.90;1.63;;;20.90;52.10;;;;;;5052622;28;20508;-77
2023/06/04 06:45:47;;;;;;;1.60;1.50;;;20.90;52.10;;;;;;5034856;28;20439;-77
2023/06/04 06:48:13;;;;;;;2.03;1.80;;;20.90;52.10;;;;;;5051115;28;20391;-77
2023/06/04 06:50:39;;;;;;;2.73;1.80;;;20.90;52.10;;;;;;5034683;28;20229;-77
2023/06/04 06:53:05;;;;;;;2.13;1.93;;;20.90;52.00;;;;;;5017483;28;20399;-78
2023/06/04 06:55:31;;;;;;;1.70;1.60;;;20.90;52.00;;;;;;5033155;28;20798;-77
2023/06/04 06:57:58;;;;;;;2.17;1.83;;;20.90;51.90;;;;;;5035195;28;20445;-78
2023/06/04 07:00:25;;;;;;;3.00;1.80;;;20.90;51.90;;;;;;5052311;28;21034;-78
2023/06/04 07:02:51;;;;;;;1.60;1.50;;;20.90;51.90;;;;;;5034854;28;20453;-78
2023/06/04 07:05:19;;;;;;;1.73;1.60;;;20.90;51.80;;;;;;5052200;28;20567;-78
2023/06/04 07:07:50;;;;;;;1.70;1.50;;;20.90;51.80;;;;;;5034944;28;20580;-78
2023/06/04 07:10:16;;;;;;;1.67;1.57;;;20.90;51.80;;;;;;5034477;28;20433;-79
2023/06/04 07:12:46;;;;;;;2.37;1.90;;;20.90;51.70;;;;;;5034383;28;20524;-78
2023/06/04 07:15:12;;;;;;;2.40;1.77;;;20.90;51.70;;;;;;5052566;28;20970;-78
2023/06/04 07:17:41;;;;;;;2.63;2.10;;;20.90;51.70;;;;;;5054563;28;20429;-81
2023/06/04 07:20:12;;;;;;;2.00;1.80;;;20.90;51.60;;;;;;5008903;28;20458;-77
2023/06/04 07:22:38;;;;;;;3.00;2.07;;;20.90;51.50;;;;;;5043620;28;20419;-80
2023/06/04 07:25:05;;;;;;;2.57;1.80;;;20.90;51.50;;;;;;5062342;28;20520;-80
2023/06/04 07:27:34;;;;;;;1.50;1.40;;;20.90;51.50;;;;;;5045818;28;20398;-80
2023/06/04 07:30:00;;;;;;;1.80;1.70;;;20.90;51.40;;;;;;5045647;28;20406;-80
2023/06/04 07:32:26;;;;;;;2.90;1.80;;;20.90;51.40;;;;;;5045509;28;20453;-80
2023/06/04 07:34:52;;;;;;;2.90;1.93;;;21.00;51.40;;;;;;5061467;28;20439;-81
2023/06/04 07:37:18;;;;;;;2.10;1.90;;;21.00;51.40;;;;;;5045578;28;20449;-80
2023/06/04 07:39:44;;;;;;;4.50;2.00;;;21.00;51.40;;;;;;5062096;28;20446;-80
2023/06/04 07:42:13;;;;;;;2.20;1.60;;;21.00;51.40;;;;;;5046072;28;20494;-80
2023/06/04 07:44:39;;;;;;;2.40;2.10;;;21.00;51.40;;;;;;5062832;28;20565;-80
2023/06/04 07:47:05;;;;;;;2.30;2.10;;;21.00;51.40;;;;;;5040488;28;20881;-80
2023/06/04 07:49:35;;;;;;;2.30;1.90;;;21.00;51.40;;;;;;5065222;28;20460;-80
2023/06/04 07:52:01;;;;;;;2.40;1.60;;;21.10;51.40;;;;;;5083296;28;20411;-80
2023/06/04 07:54:27;;;;;;;2.17;1.70;;;21.10;51.40;;;;;;5084070;28;20927;-80
2023/06/04 07:56:55;;;;;;;2.00;1.57;;;21.10;51.50;;;;;;5064606;28;20494;-80
2023/06/04 07:59:23;;;;;;;2.47;1.73;;;21.10;51.50;;;;;;5064678;28;20472;-80
2023/06/04 08:01:51;;;;;;;3.47;1.77;;;21.10;51.60;;;;;;5065283;28;20508;-80
2023/06/04 08:04:20;;;;;;;2.20;1.87;;;21.10;51.60;;;;;;5066946;28;20449;-80
2023/06/04 08:06:51;;;;;;;1.97;1.70;;;21.10;51.60;;;;;;5051393;28;20873;-80
2023/06/04 08:09:18;;;;;;;2.40;2.20;;;21.20;51.70;;;;;;5051766;28;20449;-80
2023/06/04 08:11:44;;;;;;;2.80;1.80;;;21.20;51.70;;;;;;5068067;28;20456;-80
2023/06/04 08:14:13;;;;;;;2.20;2.00;;;21.20;51.60;;;;;;5067256;28;20503;-80
2023/06/04 08:16:41;;;;;;;2.73;2.10;;;21.20;51.70;;;;;;5056951;28;20446;-80
2023/06/04 08:19:26;;;;;;;2.43;2.23;;;21.20;51.70;;;;;;5045376;28;20439;-80
2023/06/04 08:21:57;;;;;;;2.10;1.87;;;21.20;51.70;;;;;;5046200;28;20880;-80
2023/06/04 08:24:38;;;;;;;2.40;2.10;;;21.30;51.80;;;;;;5045459;28;20498;-80
2023/06/04 08:27:24;;;;;;;2.60;2.20;;;21.30;51.80;;;;;;5028800;28;20438;-80
2023/06/04 08:30:03;;;;;;;2.40;2.20;;;21.30;52.40;;;;;;5044836;28;20421;-80
2023/06/04 08:32:53;;;;;;;2.60;2.20;;;21.40;51.90;;;;;;5012766;28;21020;-80
2023/06/04 08:35:20;;;;;;;2.43;2.23;;;21.40;52.00;;;;;;5042453;28;21092;-80
2023/06/04 08:37:46;;;;;;;2.30;2.10;;;21.40;52.00;;;;;;5024618;28;20430;-80
2023/06/04 08:40:13;;;;;;;3.60;2.50;;;21.40;51.90;;;;;;5025285;28;20482;-80
2023/06/04 08:42:42;;;;;;;2.67;2.30;;;21.40;51.90;;;;;;5026419;28;20422;-80
2023/06/04 08:45:16;;;;;;;3.43;2.70;;;21.50;52.00;;;;;;5043110;28;20435;-80
2023/06/04 08:47:50;;;;;;;2.90;2.70;;;21.50;52.00;;;;;;5056865;28;20430;-85
2023/06/04 08:50:24;;;;;;;3.30;2.93;;;21.60;52.10;;;;;;5005557;28;20780;-78
2023/06/04 08:52:59;;;;;;;3.23;2.77;;;21.60;52.00;;;;;;5055676;28;20781;-78
2023/06/04 08:55:26;;;;;;;2.77;2.43;;;21.60;52.00;;;;;;5040641;28;20487;-78
2023/06/04 08:57:53;;;;;;;3.53;3.23;;;21.60;52.00;;;;;;5057935;28;20791;-79
2023/06/04 09:00:21;;;;;;;2.97;2.73;;;21.70;52.00;;;;;;5056574;28;20443;-78
2023/06/04 09:02:49;;;;;;;2.90;2.60;;;21.70;52.10;;;;;;5041391;28;20414;-80
2023/06/04 09:05:23;;;;;;;2.70;2.50;;;21.70;52.00;;;;;;5057769;28;20783;-80
2023/06/04 09:08:00;;;;;;;3.40;2.70;;;21.80;52.00;;;;;;5040008;28;20434;-78
2023/06/04 09:10:28;;;;;;;3.80;2.90;;;21.80;51.90;;;;;;5040676;28;20489;-78
2023/06/04 09:12:57;;;;;;;3.10;2.77;;;21.80;51.80;;;;;;5076588;28;20420;-79
2023/06/04 09:15:27;;;;;;;3.13;2.90;;;21.80;51.80;;;;;;5077657;28;20441;-78
2023/06/04 09:17:53;;;;;;;2.90;2.67;;;21.90;51.80;;;;;;5043410;28;20429;-78
2023/06/04 09:20:24;;;;;;;3.80;2.70;;;21.90;51.70;;;;;;5060797;28;20469;-78
2023/06/04 09:22:51;;;;;;;2.80;2.30;;;21.90;51.60;;;;;;5060074;28;20441;-79
2023/06/04 09:25:26;;;;;;;2.97;2.77;;;21.90;51.50;;;;;;5076966;28;20429;-78
2023/06/04 09:28:06;;;;;;;3.33;2.80;;;22.00;51.50;;;;;;5077876;28;20488;-78
2023/06/04 09:30:32;;;;;;;3.80;3.00;;;22.00;51.30;;;;;;5077863;28;20902;-78
2023/06/04 09:33:12;;;;;;;2.73;2.53;;;22.00;51.30;;;;;;5076078;28;20398;-79
2023/06/04 09:35:40;;;;;;;3.50;2.57;;;22.10;51.30;;;;;;5059546;28;20195;-78
2023/06/04 09:38:06;;;;;;;3.40;3.10;;;22.10;51.20;;;;;;5076155;28;20422;-79
2023/06/04 09:40:38;;;;;;;3.00;2.70;;;22.10;51.10;;;;;;5040845;28;20204;-80
2023/06/04 09:43:04;;;;;;;3.87;2.50;;;22.20;50.90;;;;;;5058164;28;20485;-78
2023/06/04 09:45:32;;;;;;;3.30;2.47;;;22.20;50.90;;;;;;5056291;28;20441;-79
2023/06/04 09:48:02;;;;;;;4.70;2.30;;;22.20;50.90;;;;;;5039985;28;20493;-79
2023/06/04 09:50:30;;;;;;;5.73;2.43;;;22.30;50.90;;;;;;5039237;28;20414;-78
2023/06/04 09:52:56;;;;;;;3.97;2.47;;;22.30;50.80;;;;;;5054840;28;20407;-77
2023/06/04 09:55:23;;;;;;;3.17;2.87;;;22.30;50.70;;;;;;5021686;28;20474;-77
2023/06/04 09:57:53;;;;;;;4.00;2.53;;;22.40;50.70;;;;;;5021701;28;20423;-75
2023/06/04 10:00:23;;;;;;;2.63;2.10;;;22.40;50.60;;;;;;5037987;28;20839;-74
2023/06/04 10:02:55;;;;;;;2.80;2.53;;;22.40;50.50;;;;;;5054690;28;20402;-77
2023/06/04 10:05:22;;;;;;;3.07;2.27;;;22.50;50.50;;;;;;5053100;28;20433;-75
2023/06/04 10:07:54;;;;;;;4.10;2.43;;;22.50;50.50;;;;;;5053161;28;21018;-73
2023/06/04 10:10:25;;;;;;;2.40;2.20;;;22.60;50.50;;;;;;5035516;28;20407;-78
2023/06/04 10:13:03;;;;;;;2.40;2.13;;;22.60;50.50;;;;;;5037271;28;20492;-79
2023/06/04 10:15:35;;;;;;;3.13;2.27;;;22.60;50.40;;;;;;5057719;28;20438;-79
2023/06/04 10:18:03;;;;;;;2.27;2.17;;;22.70;50.50;;;;;;5039976;28;20425;-79
2023/06/04 10:20:34;;;;;;;3.10;2.80;;;22.70;50.40;;;;;;5056849;28;20442;-79
2023/06/04 10:23:04;;;;;;;2.87;2.20;;;22.80;50.50;;;;;;5039342;28;20934;-78
2023/06/04 10:25:34;;;;;;;2.87;2.60;;;22.80;50.40;;;;;;5054664;28;20427;-77
2023/06/04 10:28:03;;;;;;;3.13;2.83;;;22.80;50.40;;;;;;5037607;28;20990;-78
2023/06/04 10:30:34;;;;;;;2.70;2.40;;;22.90;50.30;;;;;;5022838;28;20445;-79
2023/06/04 10:33:06;;;;;;;3.53;2.40;;;23.00;50.30;;;;;;5042669;28;20430;-78
2023/06/04 10:35:36;;;;;;;2.70;2.40;;;23.00;50.30;;;;;;5058167;28;20449;-78
2023/06/04 10:38:13;;;;;;;2.67;2.20;;;23.00;50.10;;;;;;5040398;28;20431;-80
2023/06/04 10:40:40;;;;;;;4.33;2.73;;;23.00;50.10;;;;;;5043150;28;20493;-80
2023/06/04 10:43:15;;;;;;;4.43;2.60;;;23.10;50.20;;;;;;5039464;28;20414;-78
2023/06/04 10:45:45;;;;;;;5.10;2.87;;;23.20;50.20;;;;;;5059885;28;20468;-81
2023/06/04 10:48:13;;;;;;;3.87;2.73;;;23.20;50.20;;;;;;5058273;28;20403;-80
2023/06/04 10:50:52;;;;;;;2.23;2.03;;;23.20;50.10;;;;;;5041458;28;20488;-80
2023/06/04 10:53:23;;;;;;;2.63;2.37;;;23.20;50.00;;;;;;5038635;28;20420;-77
2023/06/04 10:55:49;;;;;;;2.90;2.60;;;23.30;49.90;;;;;;5037489;28;20489;-80
2023/06/04 10:58:20;;;;;;;4.03;2.37;;;23.30;50.50;;;;;;5057175;28;20445;-79
2023/06/04 11:00:48;;;;;;;3.30;3.00;;;23.30;49.80;;;;;;5052500;28;20570;-77
2023/06/04 11:03:15;;;;;;;2.30;2.10;;;23.40;49.80;;;;;;5052641;28;20533;-76
2023/06/04 11:05:47;;;;;;;2.43;2.23;;;23.40;49.80;;;;;;5036058;28;20431;-76
2023/06/04 11:08:29;;;;;;;2.83;2.20;;;23.40;49.80;;;;;;5053779;28;20429;-79
2023/06/04 11:10:58;;;;;;;2.70;2.47;;;23.50;49.70;;;;;;5035787;28;20438;-74
2023/06/04 11:13:27;;;;;;;3.27;2.60;;;23.50;49.50;;;;;;5041492;28;20442;-74
2023/06/04 11:15:53;;;;;;;2.73;2.53;;;23.60;49.60;;;;;;5059005;28;20449;-74
2023/06/04 11:18:20;;;;;;;2.93;2.67;;;23.60;49.40;;;;;;5052668;28;20500;-77
2023/06/04 11:21:01;;;;;;;3.30;2.40;;;23.70;49.40;;;;;;5071101;28;20784;-75
2023/06/04 11:23:27;;;;;;;3.00;2.70;;;23.70;49.30;;;;;;5070491;28;20405;-74
2023/06/04 11:25:58;;;;;;;2.40;2.20;;;23.70;48.60;;;;;;5054263;28;20410;-73
2023/06/04 11:28:24;;;;;;;2.50;2.23;;;23.80;48.40;;;;;;5071403;28;20500;-76
2023/06/04 11:31:02;;;;;;;2.87;2.23;;;23.80;48.10;;;;;;5071994;28;20404;-77
2023/06/04 11:33:44;;;;;;;2.80;2.50;;;23.90;47.90;;;;;;5054120;28;20477;-76
2023/06/04 11:36:21;;;;;;;3.13;1.90;;;23.90;47.80;;;;;;5070619;28;20402;-75
2023/06/04 11:39:00;;;;;;;2.50;2.20;;;23.90;47.80;;;;;;5071596;28;20398;-74
2023/06/04 11:41:34;;;;;;;1.97;1.87;;;24.00;48.10;;;;;;5044705;28;20425;-74
2023/06/04 11:44:05;;;;;;;4.33;2.20;;;24.00;48.10;;;;;;5033879;28;20812;-74
2023/06/04 11:46:48;;;;;;;3.03;2.37;;;24.00;48.10;;;;;;5034041;28;20454;-74
2023/06/04 11:49:20;;;;;;;2.70;2.50;;;24.10;48.20;;;;;;5051761;28;20444;-74
2023/06/04 11:51:54;;;;;;;5.00;2.70;;;24.10;48.20;;;;;;5034060;28;20533;-74
2023/06/04 11:54:23;;;;;;;3.50;2.40;;;24.10;48.20;;;;;;5050269;28;20442;-74
2023/06/04 11:56:53;;;;;;;2.90;2.70;;;24.10;48.10;;;;;;5033683;28;20442;-74
2023/06/04 11:59:22;;;;;;;2.87;2.57;;;24.20;48.20;;;;;;5033830;28;20462;-74
2023/06/04 12:01:53;;;;;;;5.10;2.57;;;24.20;48.70;;;;;;5050584;28;20760;-74
2023/06/04 12:04:19;;;;;;;2.90;2.63;;;24.20;48.10;;;;;;5033518;28;20442;-74
2023/06/04 12:07:04;;;;;;;3.00;2.60;;;24.20;48.00;;;;;;5034008;28;20981;-74
2023/06/04 12:09:37;;;;;;;3.50;2.60;;;24.30;48.00;;;;;;5052770;28;20410;-75
2023/06/04 12:12:12;;;;;;;2.60;2.40;;;24.30;47.90;;;;;;5050836;28;20414;-74
2023/06/04 12:14:44;;;;;;;3.90;2.53;;;24.40;48.00;;;;;;5033057;28;20438;-74
2023/06/04 12:17:13;;;;;;;2.93;2.50;;;24.40;48.10;;;;;;5017629;28;20407;-74
2023/06/04 12:19:50;;;;;;;2.67;2.47;;;24.40;48.00;;;;;;5033597;28;20524;-74
2023/06/04 12:22:19;;;;;;;3.20;2.90;;;24.40;47.90;;;;;;5017334;28;20510;-74
2023/06/04 12:24:57;;;;;;;2.50;2.30;;;24.50;47.90;;;;;;5051326;28;20435;-75
2023/06/04 12:27:28;;;;;;;3.50;2.67;;;24.50;47.80;;;;;;5033782;28;20424;-74
2023/06/04 12:29:56;;;;;;;3.00;2.80;;;24.50;47.80;;;;;;5033796;28;20426;-75
2023/06/04 12:32:26;;;;;;;3.10;2.30;;;24.60;48.10;;;;;;5050001;28;20446;-74
2023/06/04 12:34:53;;;;;;;2.97;2.70;;;24.60;47.90;;;;;;4998293;28;20557;-75
2023/06/04 12:37:25;;;;;;;3.37;2.50;;;24.70;48.00;;;;;;5018006;28;20411;-75
2023/06/04 12:39:51;;;;;;;3.00;2.70;;;24.70;48.10;;;;;;5033335;28;20905;-74
2023/06/04 12:42:20;;;;;;;3.20;2.90;;;24.70;47.80;;;;;;5033231;28;20443;-74
2023/06/04 12:44:46;;;;;;;2.87;2.57;;;24.70;47.80;;;;;;5033131;28;20441;-74
2023/06/04 12:47:16;;;;;;;3.40;2.50;;;24.80;48.00;;;;;;5049746;28;20441;-75
2023/06/04 12:49:42;;;;;;;3.93;2.93;;;24.80;47.80;;;;;;5050434;28;20538;-75
2023/06/04 12:52:11;;;;;;;2.90;2.70;;;24.80;47.90;;;;;;5020029;28;20509;-75
2023/06/04 12:54:39;;;;;;;3.53;2.77;;;24.90;47.70;;;;;;5016983;28;20955;-77
2023/06/04 12:57:08;;;;;;;2.60;2.40;;;24.90;47.20;;;;;;5052993;28;20498;-75
2023/06/04 12:59:34;;;;;;;3.10;2.50;;;24.90;47.30;;;;;;5036671;28;20462;-76